createdAt,value
2019-05-01T00:00:28.494Z,100767.49
2019-05-01T00:01:38.592Z,100776.34
2019-05-01T00:02:39.387Z,100776.63
2019-05-01T00:03:46.265Z,100771.17
2019-05-01T00:04:35.628Z,100777.33
2019-05-01T00:05:25.412Z,100777.33
2019-05-01T00:06:01.702Z,100772.97
2019-05-01T00:06:40.838Z,100769.97
2019-05-01T00:07:24.008Z,100773.42
2019-05-01T00:08:00.095Z,100776.33
2019-05-01T00:08:36.217Z,100770.35
2019-05-01T00:09:12.981Z,100770.35
2019-05-01T00:09:49.093Z,100777.61
2019-05-01T00:10:25.409Z,100765.19
2019-05-01T00:11:01.567Z,100772.70
2019-05-01T00:11:37.672Z,100770.40
2019-05-01T00:12:14.021Z,100770.40
2019-05-01T00:12:50.085Z,100776.81
2019-05-01T00:13:26.183Z,100776.81
2019-05-01T00:14:02.290Z,100776.31
2019-05-01T00:14:38.608Z,100776.31
2019-05-01T00:15:15.025Z,100770.40
2019-05-01T00:15:51.518Z,100781.88
2019-05-01T00:16:27.641Z,100779.72
2019-05-01T00:17:03.900Z,100779.72
2019-05-01T00:17:40.121Z,100789.06
2019-05-01T00:18:16.119Z,100787.96
2019-05-01T00:18:52.166Z,100789.06
2019-05-01T00:19:28.249Z,100783.05
2019-05-01T00:20:04.668Z,100796.70
2019-05-01T00:20:40.822Z,100791.48
2019-05-01T00:21:16.923Z,100801.19
2019-05-01T00:21:53.087Z,100796.82
2019-05-01T00:22:29.235Z,100802.98
2019-05-01T00:23:05.371Z,100805.89
2019-05-01T00:23:41.541Z,100803.92
2019-05-01T00:24:17.766Z,100806.83
2019-05-01T00:24:53.891Z,100806.83
2019-05-01T00:25:30.131Z,100801.97
2019-05-01T00:26:06.233Z,100807.83
2019-05-01T00:26:42.349Z,100808.88
2019-05-01T00:27:18.449Z,100810.45
2019-05-01T00:27:54.670Z,100815.26
2019-05-01T00:28:31.014Z,100808.38
2019-05-01T00:29:07.192Z,100807.15
2019-05-01T00:29:43.243Z,100808.91
2019-05-01T00:30:29.730Z,100810.01
2019-05-01T00:30:59.642Z,100814.54
2019-05-01T00:31:35.855Z,100816.54
2019-05-01T00:32:11.968Z,100814.58
2019-05-01T00:32:48.036Z,100816.75
2019-05-01T00:33:24.196Z,100820.63
2019-05-01T00:34:00.298Z,100817.19
2019-05-01T00:34:36.833Z,100822.23
2019-05-01T00:35:13.015Z,100825.36
2019-05-01T00:35:49.086Z,100823.56
2019-05-01T00:36:25.233Z,100824.45
2019-05-01T00:37:01.395Z,100822.30
2019-05-01T00:37:37.506Z,100826.61
2019-05-01T00:38:13.524Z,100823.45
2019-05-01T00:38:49.828Z,100821.58
2019-05-01T00:39:25.983Z,100825.16
2019-05-01T00:40:02.157Z,100822.20
2019-05-01T00:40:38.233Z,100825.72
2019-05-01T00:41:14.423Z,100824.67
2019-05-01T00:41:50.525Z,100826.34
2019-05-01T00:42:26.564Z,100820.11
2019-05-01T00:43:02.673Z,100832.08
2019-05-01T00:43:38.831Z,100825.92
2019-05-01T00:44:14.905Z,100830.86
2019-05-01T00:44:51.121Z,100831.42
2019-05-01T00:45:27.233Z,100836.36
2019-05-01T00:46:03.356Z,100834.52
2019-05-01T00:46:39.416Z,100835.31
2019-05-01T00:47:15.650Z,100838.06
2019-05-01T00:47:51.819Z,100837.81
2019-05-01T00:48:27.923Z,100833.63
2019-05-01T00:49:03.982Z,100838.51
2019-05-01T00:49:40.021Z,100841.28
2019-05-01T00:50:16.143Z,100838.02
2019-05-01T00:50:52.340Z,100841.28
2019-05-01T00:51:28.453Z,100840.48
2019-05-01T00:52:04.499Z,100845.35
2019-05-01T00:52:40.734Z,100835.30
2019-05-01T00:53:16.765Z,100843.44
2019-05-01T00:53:52.865Z,100843.20
2019-05-01T00:54:29.900Z,100846.95
2019-05-01T00:55:22.943Z,100848.31
2019-05-01T00:56:16.357Z,100850.47
2019-05-01T00:57:10.095Z,100848.62
2019-05-01T00:57:53.367Z,100851.58
2019-05-01T00:58:51.239Z,100851.40
2019-05-01T00:59:38.449Z,100853.87
2019-05-01T01:00:42.605Z,100856.71
2019-05-01T01:01:37.433Z,100851.10
2019-05-01T01:02:20.442Z,100853.54
2019-05-01T01:02:57.355Z,100853.05
2019-05-01T01:03:33.550Z,100849.23
2019-05-01T01:04:11.490Z,100849.75
2019-05-01T01:04:47.691Z,100852.15
2019-05-01T01:05:23.961Z,100851.84
2019-05-01T01:06:00.107Z,100852.33
2019-05-01T01:06:36.225Z,100855.29
2019-05-01T01:07:12.339Z,100856.34
2019-05-01T01:07:48.403Z,100858.25
2019-05-01T01:08:24.634Z,100857.94
2019-05-01T01:09:00.858Z,100857.87
2019-05-01T01:09:36.918Z,100855.65
2019-05-01T01:10:13.231Z,100855.89
2019-05-01T01:10:49.344Z,100865.64
2019-05-01T01:11:25.478Z,100859.34
2019-05-01T01:12:01.624Z,100860.95
2019-05-01T01:12:37.739Z,100866.93
2019-05-01T01:13:13.881Z,100862.30
2019-05-01T01:13:50.125Z,100864.39
2019-05-01T01:14:26.401Z,100863.56
2019-05-01T01:15:02.572Z,100863.18
2019-05-01T01:15:38.622Z,100867.98
2019-05-01T01:16:14.603Z,100867.36
2019-05-01T01:16:50.775Z,100871.06
2019-05-01T01:17:27.022Z,100869.32
2019-05-01T01:18:03.227Z,100868.20
2019-05-01T01:18:39.445Z,100869.48
2019-05-01T01:19:15.563Z,100866.74
2019-05-01T01:19:51.732Z,100862.91
2019-05-01T01:20:27.889Z,100863.10
2019-05-01T01:21:03.969Z,100862.72
2019-05-01T01:21:40.036Z,100860.63
2019-05-01T01:22:16.203Z,100865.60
2019-05-01T01:22:52.239Z,100862.72
2019-05-01T01:23:28.356Z,100868.10
2019-05-01T01:24:04.877Z,100864.19
2019-05-01T01:24:41.029Z,100866.91
2019-05-01T01:25:17.118Z,100871.46
2019-05-01T01:25:53.095Z,100871.70
2019-05-01T01:26:29.134Z,100869.46
2019-05-01T01:27:05.193Z,100877.22
2019-05-01T01:27:41.134Z,100879.30
2019-05-01T01:28:17.239Z,100880.34
2019-05-01T01:28:53.321Z,100878.66
2019-05-01T01:29:29.400Z,100879.93
2019-05-01T01:30:06.214Z,100879.00
2019-05-01T01:30:42.392Z,100883.16
2019-05-01T01:31:18.646Z,100879.47
2019-05-01T01:31:54.932Z,100885.56
2019-05-01T01:32:31.063Z,100880.60
2019-05-01T01:33:07.172Z,100881.73
2019-05-01T01:33:43.268Z,100878.67
2019-05-01T01:34:19.256Z,100885.28
2019-05-01T01:34:55.488Z,100880.57
2019-05-01T01:35:33.211Z,100880.39
2019-05-01T01:36:09.174Z,100885.31
2019-05-01T01:36:45.199Z,100886.21
2019-05-01T01:37:21.331Z,100884.27
2019-05-01T01:37:57.598Z,100885.05
2019-05-01T01:38:33.838Z,100889.74
2019-05-01T01:39:10.033Z,100882.69
2019-05-01T01:39:46.329Z,100887.91
2019-05-01T01:40:22.493Z,100888.91
2019-05-01T01:40:58.603Z,100892.85
2019-05-01T01:41:34.778Z,100896.86
2019-05-01T01:42:11.232Z,100890.77
2019-05-01T01:42:49.193Z,100894.81
2019-05-01T01:43:54.255Z,100897.16
2019-05-01T01:44:47.372Z,100903.50
2019-05-01T01:45:51.276Z,100904.02
2019-05-01T01:46:28.968Z,100901.80
2019-05-01T01:47:05.159Z,100906.62
2019-05-01T01:48:00.184Z,100901.53
2019-05-01T01:48:36.493Z,100907.63
2019-05-01T01:49:12.681Z,100907.80
2019-05-01T01:49:48.917Z,100905.49
2019-05-01T01:50:25.151Z,100898.77
2019-05-01T01:51:01.236Z,100911.67
2019-05-01T01:51:37.365Z,100904.63
2019-05-01T01:52:13.668Z,100907.02
2019-05-01T01:52:49.805Z,100909.42
2019-05-01T01:53:25.947Z,100908.77
2019-05-01T01:54:02.240Z,100907.56
2019-05-01T01:54:38.363Z,100899.95
2019-05-01T01:55:14.595Z,100907.23
2019-05-01T01:55:50.980Z,100904.19
2019-05-01T01:56:27.105Z,100896.73
2019-05-01T01:57:03.304Z,100899.45
2019-05-01T01:57:39.406Z,100897.68
2019-05-01T01:58:15.732Z,100897.95
2019-05-01T01:58:52.022Z,100894.95
2019-05-01T01:59:28.600Z,100894.48
2019-05-01T02:00:06.440Z,100896.17
2019-05-01T02:01:09.537Z,100888.98
2019-05-01T02:02:00.869Z,100886.67
2019-05-01T02:02:42.807Z,100891.64
2019-05-01T02:03:19.211Z,100885.95
2019-05-01T02:03:59.517Z,100888.20
2019-05-01T02:04:57.522Z,100885.72
2019-05-01T02:05:36.369Z,100881.78
2019-05-01T02:06:12.756Z,100882.58
2019-05-01T02:06:49.995Z,100880.02
2019-05-01T02:07:26.017Z,100876.96
2019-05-01T02:08:02.134Z,100879.45
2019-05-01T02:08:38.267Z,100882.73
2019-05-01T02:09:14.762Z,100879.21
2019-05-01T02:09:51.077Z,100881.70
2019-05-01T02:10:27.473Z,100877.47
2019-05-01T02:11:03.770Z,100881.55
2019-05-01T02:11:40.040Z,100880.04
2019-05-01T02:12:16.229Z,100883.80
2019-05-01T02:12:52.407Z,100884.13
2019-05-01T02:13:28.443Z,100875.95
2019-05-01T02:14:04.603Z,100878.20
2019-05-01T02:14:40.701Z,100888.59
2019-05-01T02:15:17.162Z,100884.12
2019-05-01T02:15:53.968Z,100884.67
2019-05-01T02:16:30.160Z,100879.80
2019-05-01T02:17:06.328Z,100885.33
2019-05-01T02:17:42.512Z,100888.37
2019-05-01T02:18:18.753Z,100888.70
2019-05-01T02:18:55.069Z,100888.45
2019-05-01T02:19:31.272Z,100892.06
2019-05-01T02:20:09.326Z,100889.10
2019-05-01T02:20:45.454Z,100887.66
2019-05-01T02:21:21.686Z,100889.34
2019-05-01T02:21:57.841Z,100887.18
2019-05-01T02:22:34.116Z,100888.22
2019-05-01T02:23:10.437Z,100884.14
2019-05-01T02:23:46.553Z,100889.81
2019-05-01T02:24:22.699Z,100892.77
2019-05-01T02:24:58.860Z,100892.77
2019-05-01T02:25:36.344Z,100893.66
2019-05-01T02:26:16.453Z,100894.78
2019-05-01T02:26:54.496Z,100895.67
2019-05-01T02:27:37.962Z,100892.47
2019-05-01T02:28:28.457Z,100893.83
2019-05-01T02:29:26.558Z,100894.31
2019-05-01T02:30:04.543Z,100892.62
2019-05-01T09:22:54.719Z,100458.63
2019-05-01T09:23:34.297Z,100467.95
2019-05-01T09:24:12.299Z,100459.98
2019-05-01T09:24:49.068Z,100465.79
2019-05-01T09:25:35.368Z,100464.99
2019-05-01T09:26:20.215Z,100458.97
2019-05-01T09:27:18.786Z,100459.09
2019-05-01T09:28:06.001Z,100457.95
2019-05-01T09:28:48.660Z,100453.98
2019-05-01T09:29:30.237Z,100451.61
2019-05-01T09:30:15.719Z,100450.81
2019-05-01T09:31:01.337Z,100450.02
2019-05-01T09:31:36.081Z,100445.93
2019-05-01T09:32:13.330Z,100448.88
2019-05-01T09:32:54.077Z,100450.70
2019-05-01T09:33:30.800Z,100454.56
2019-05-01T09:34:09.444Z,100457.30
2019-05-01T09:34:46.506Z,100461.38
2019-05-01T09:35:22.804Z,100453.20
2019-05-01T09:35:59.002Z,100457.28
2019-05-01T09:36:35.340Z,100457.52
2019-05-01T09:37:13.829Z,100451.72
2019-05-01T09:37:50.830Z,100458.66
2019-05-01T09:38:27.531Z,100456.39
2019-05-01T09:39:06.148Z,100453.31
2019-05-01T09:39:43.532Z,100460.70
2019-05-01T09:40:19.945Z,100457.07
2019-05-01T09:40:57.187Z,100452.30
2019-05-01T09:41:38.265Z,100450.01
2019-05-01T09:42:22.852Z,100462.48
2019-05-01T09:42:59.487Z,100465.78
2019-05-01T09:43:35.487Z,100454.09
2019-05-01T09:44:13.149Z,100452.27
2019-05-01T09:44:50.858Z,100463.63
2019-05-01T09:45:27.382Z,100464.52
2019-05-01T09:46:04.459Z,100459.62
2019-05-01T09:46:40.712Z,100462.23
2019-05-01T09:47:18.145Z,100464.05
2019-05-01T09:47:56.201Z,100458.31
2019-05-01T09:48:35.687Z,100466.36
2019-05-01T09:49:14.240Z,100463.64
2019-05-01T09:49:54.021Z,100459.88
2019-05-01T09:50:30.378Z,100459.93
2019-05-01T09:51:26.184Z,100460.48
2019-05-01T09:52:36.280Z,100460.17
2019-05-01T09:53:29.650Z,100458.81
2019-05-01T09:54:32.249Z,100464.81
2019-05-01T09:55:24.602Z,100461.50
2019-05-01T09:56:23.059Z,100456.91
2019-05-01T09:56:59.678Z,100454.39
2019-05-01T09:57:36.468Z,100457.21
2019-05-01T09:58:18.509Z,100457.55
2019-05-01T09:58:58.997Z,100458.67
2019-05-01T09:59:36.376Z,100459.14
2019-05-01T10:00:20.200Z,100464.81
2019-05-01T10:00:58.966Z,100458.34
2019-05-01T10:01:36.040Z,100459.03
2019-05-01T10:02:12.549Z,100462.68
2019-05-01T10:02:50.224Z,100460.76
2019-05-01T10:03:27.445Z,100460.06
2019-05-01T10:04:05.590Z,100461.86
2019-05-01T10:04:41.990Z,100457.78
2019-05-01T10:05:28.634Z,100453.13
2019-05-01T10:05:57.053Z,100455.98
2019-05-01T10:06:33.732Z,100460.40
2019-05-01T10:07:10.443Z,100459.62
2019-05-01T10:07:47.777Z,100458.27
2019-05-01T10:08:24.017Z,100458.75
2019-05-01T10:09:00.400Z,100457.93
2019-05-01T10:09:36.873Z,100459.45
2019-05-01T10:10:13.320Z,100463.07
2019-05-01T10:10:50.316Z,100458.83
2019-05-01T10:11:27.365Z,100460.91
2019-05-01T10:12:05.341Z,100453.77
2019-05-01T10:12:42.079Z,100457.52
2019-05-01T10:13:22.495Z,100457.29
2019-05-01T10:13:58.370Z,100459.85
2019-05-01T10:14:37.489Z,100453.48
2019-05-01T10:15:13.769Z,100461.89
2019-05-01T10:15:53.130Z,100457.57
2019-05-01T10:16:30.176Z,100458.03
2019-05-01T10:17:07.396Z,100457.34
2019-05-01T10:17:48.885Z,100465.50
2019-05-01T10:18:25.463Z,100462.11
2019-05-01T10:19:01.791Z,100458.27
2019-05-01T10:19:41.433Z,100459.62
2019-05-01T10:20:17.615Z,100459.95
2019-05-01T10:20:53.908Z,100462.34
2019-05-01T10:21:30.247Z,100462.34
2019-05-01T10:22:07.537Z,100463.70
2019-05-01T10:22:43.800Z,100460.52
2019-05-01T10:23:20.389Z,100458.27
2019-05-01T10:23:57.547Z,100461.55
2019-05-01T10:24:37.791Z,100459.39
2019-05-01T10:25:12.388Z,100460.76
2019-05-01T10:25:52.986Z,100455.98
2019-05-01T10:26:31.194Z,100453.26
2019-05-01T10:27:09.604Z,100458.24
2019-05-01T10:27:56.233Z,100459.59
2019-05-01T10:28:44.961Z,100459.47
2019-05-01T10:29:48.877Z,100456.42
2019-05-01T10:30:42.701Z,100461.63
2019-05-01T10:31:58.272Z,100457.09
2019-05-01T10:32:38.886Z,100463.89
2019-05-01T10:33:19.318Z,100458.66
2019-05-01T10:34:09.050Z,100457.95
2019-05-01T10:35:06.904Z,100451.79
2019-05-01T10:36:00.310Z,100455.17
2019-05-01T10:36:44.740Z,100455.81
2019-05-01T10:37:23.622Z,100461.69
2019-05-01T10:38:00.613Z,100461.13
2019-05-01T10:38:45.096Z,100462.58
2019-05-01T10:39:20.844Z,100456.91
2019-05-01T10:39:57.830Z,100458.84
2019-05-01T10:40:34.368Z,100460.99
2019-05-01T10:41:11.125Z,100457.81
2019-05-01T10:41:47.985Z,100456.16
2019-05-01T10:42:24.235Z,100455.22
2019-05-01T10:43:02.116Z,100456.35
2019-05-01T10:43:38.369Z,100452.38
2019-05-01T10:44:14.600Z,100457.81
2019-05-01T10:44:51.798Z,100454.30
2019-05-01T10:45:32.360Z,100457.44
2019-05-01T10:46:09.284Z,100450.08
2019-05-01T10:46:45.438Z,100449.38
2019-05-01T10:47:22.545Z,100457.41
2019-05-01T10:47:59.825Z,100448.12
2019-05-01T10:48:37.253Z,100454.45
2019-05-01T10:49:14.475Z,100446.86
2019-05-01T10:49:52.122Z,100457.17
2019-05-01T10:50:29.272Z,100458.53
2019-05-01T10:51:09.319Z,100460.84
2019-05-01T10:51:45.602Z,100457.56
2019-05-01T10:52:22.216Z,100460.05
2019-05-01T10:52:59.126Z,100462.77
2019-05-01T10:53:35.416Z,100459.49
2019-05-01T10:54:12.373Z,100467.08
2019-05-01T10:54:48.546Z,100464.13
2019-05-01T10:55:26.502Z,100468.67
2019-05-01T10:56:02.805Z,100475.24
2019-05-01T10:56:39.449Z,100473.09
2019-05-01T10:57:15.869Z,100471.59
2019-05-01T10:57:52.677Z,100467.28
2019-05-01T10:58:30.378Z,100474.30
2019-05-01T10:59:06.839Z,100471.36
2019-05-01T10:59:43.398Z,100472.88
2019-05-01T11:00:19.710Z,100471.05
2019-05-01T11:01:02.779Z,100471.05
2019-05-01T11:01:47.049Z,100475.13
2019-05-01T11:02:23.476Z,100476.25
2019-05-01T11:03:00.199Z,100471.37
2019-05-01T11:03:37.010Z,100467.16
2019-05-01T11:04:13.758Z,100467.55
2019-05-01T11:04:51.954Z,100468.30
2019-05-01T11:05:28.266Z,100463.19
2019-05-01T11:06:04.699Z,100464.97
2019-05-01T11:06:41.653Z,100465.16
2019-05-01T11:07:17.910Z,100463.80
2019-05-01T11:07:54.270Z,100466.75
2019-05-01T11:08:33.069Z,100471.06
2019-05-01T11:09:11.753Z,100468.34
2019-05-01T11:09:48.059Z,100470.83
2019-05-01T11:10:25.552Z,100470.59
2019-05-01T11:11:02.664Z,100470.03
2019-05-01T11:11:39.689Z,100470.59
2019-05-01T11:12:15.794Z,100467.23
2019-05-01T11:12:52.520Z,100467.56
2019-05-01T11:13:28.697Z,100465.08
2019-05-01T11:14:05.805Z,100468.92
2019-05-01T11:14:43.089Z,100461.00
2019-05-01T11:15:32.090Z,100466.44
2019-05-01T11:16:09.237Z,100466.14
2019-05-01T11:16:45.493Z,100472.61
2019-05-01T11:17:22.513Z,100468.86
2019-05-01T11:17:59.762Z,100471.39
2019-05-01T11:18:40.543Z,100472.75
2019-05-01T11:19:16.916Z,100477.95
2019-05-01T11:19:53.898Z,100478.61
2019-05-01T11:20:30.962Z,100477.66
2019-05-01T11:21:07.338Z,100486.70
2019-05-01T11:21:44.250Z,100482.39
2019-05-01T11:22:21.548Z,100487.11
2019-05-01T11:22:57.812Z,100490.63
2019-05-01T11:23:34.780Z,100487.41
2019-05-01T11:24:12.143Z,100489.89
2019-05-01T11:24:49.266Z,100499.96
2019-05-01T11:25:25.489Z,100495.27
2019-05-01T11:26:02.759Z,100499.11
2019-05-01T11:26:39.545Z,100503.41
2019-05-01T11:27:16.155Z,100507.72
2019-05-01T11:27:53.118Z,100510.68
2019-05-01T11:28:29.586Z,100512.03
2019-05-01T11:29:06.495Z,100508.76
2019-05-01T11:29:43.328Z,100513.16
2019-05-01T11:30:19.675Z,100513.48
2019-05-01T11:31:01.054Z,100510.77
2019-05-01T11:31:45.884Z,100515.40
2019-05-01T11:32:32.503Z,100507.25
2019-05-01T11:33:17.449Z,100507.48
2019-05-01T11:34:19.944Z,100512.59
2019-05-01T11:35:23.983Z,100512.83
2019-05-01T11:36:19.786Z,100509.80
2019-05-01T11:37:13.563Z,100513.62
2019-05-01T11:38:14.343Z,100504.92
2019-05-01T11:38:59.856Z,100509.55
2019-05-01T11:39:43.129Z,100510.12
2019-05-01T11:40:32.469Z,100510.27
2019-05-01T11:41:15.704Z,100518.36
2019-05-01T11:42:05.389Z,100515.64
2019-05-01T11:42:41.785Z,100524.82
2019-05-01T11:43:18.100Z,100522.91
2019-05-01T11:43:54.741Z,100524.27
2019-05-01T11:44:31.059Z,100524.02
2019-05-01T11:45:08.727Z,100523.55
2019-05-01T11:45:46.683Z,100519.16
2019-05-01T11:46:24.004Z,100523.23
2019-05-01T11:47:00.296Z,100517.80
2019-05-01T11:47:37.120Z,100520.19
2019-05-01T11:48:13.328Z,100516.11
2019-05-01T11:48:49.778Z,100519.06
2019-05-01T11:49:46.043Z,100517.00
2019-05-01T11:50:22.133Z,100519.63
2019-05-01T11:50:58.262Z,100525.86
2019-05-01T11:51:34.442Z,100524.97
2019-05-01T11:52:10.554Z,100519.21
2019-05-01T11:52:46.678Z,100523.28
2019-05-01T11:53:22.800Z,100521.37
2019-05-01T11:53:58.914Z,100529.75
2019-05-01T11:54:35.113Z,100527.59
2019-05-01T11:55:11.312Z,100529.61
2019-05-01T11:55:47.459Z,100525.86
2019-05-01T11:56:23.675Z,100524.27
2019-05-01T11:56:59.812Z,100528.34
2019-05-01T11:57:35.924Z,100530.58
2019-05-01T11:58:12.044Z,100525.44
2019-05-01T11:58:48.335Z,100527.36
2019-05-01T11:59:24.461Z,100533.35
2019-05-01T12:00:00.677Z,100529.84
2019-05-01T12:00:36.880Z,100529.04
2019-05-01T12:01:14.129Z,100535.27
2019-05-01T12:01:50.165Z,100529.59
2019-05-01T12:02:26.306Z,100532.31
2019-05-01T12:03:02.419Z,100541.59
2019-05-01T12:03:38.540Z,100541.83
2019-05-01T12:04:14.716Z,100544.54
2019-05-01T12:04:51.017Z,100539.44
2019-05-01T12:05:27.197Z,100539.96
2019-05-01T12:06:03.364Z,100542.44
2019-05-01T12:06:39.521Z,100540.61
2019-05-01T12:07:15.667Z,100544.92
2019-05-01T12:07:51.944Z,100539.02
2019-05-01T12:08:28.048Z,100540.61
2019-05-01T12:09:05.564Z,100546.28
2019-05-01T12:09:41.576Z,100550.11
2019-05-01T12:10:17.881Z,100544.44
2019-05-01T12:10:54.071Z,100551.00
2019-05-01T12:12:35.201Z,100556.67
2019-05-01T12:13:11.554Z,100560.73
2019-05-01T12:13:48.801Z,100558.02
2019-05-01T12:14:25.943Z,100556.11
2019-05-01T12:15:02.086Z,100568.33
2019-05-01T12:15:39.552Z,100568.41
2019-05-01T12:16:23.926Z,100568.41
2019-05-01T12:17:28.866Z,100561.63
2019-05-01T12:18:07.011Z,100566.81
2019-05-01T12:18:43.360Z,100568.02
2019-05-01T12:19:20.431Z,100563.39
2019-05-01T12:19:57.283Z,100556.36
2019-05-01T12:20:44.703Z,100560.99
2019-05-01T12:21:21.059Z,100564.03
2019-05-01T12:21:58.169Z,100564.59
2019-05-01T12:22:34.437Z,100564.91
2019-05-01T12:23:10.516Z,100559.24
2019-05-01T12:23:46.729Z,100554.38
2019-05-01T12:24:23.026Z,100562.52
2019-05-01T12:24:59.637Z,100559.00
2019-05-01T12:25:35.785Z,100567.16
2019-05-01T12:26:12.095Z,100574.18
2019-05-01T12:26:49.892Z,100565.80
2019-05-01T12:27:26.715Z,100570.66
2019-05-01T12:28:02.952Z,100570.66
2019-05-01T12:28:40.331Z,100577.69
2019-05-01T12:29:16.629Z,100579.61
2019-05-01T12:29:52.897Z,100579.61
2019-05-01T12:30:33.797Z,100579.61
2019-05-01T12:31:10.006Z,100579.61
2019-05-01T12:31:46.942Z,100579.93
2019-05-01T12:32:23.219Z,100584.24
2019-05-01T12:33:00.214Z,100587.28
2019-05-01T12:33:36.745Z,100585.20
2019-05-01T12:34:13.862Z,100576.88
2019-05-01T12:34:50.953Z,100576.08
2019-05-01T12:35:27.767Z,100581.27
2019-05-01T12:36:04.226Z,100582.86
2019-05-01T12:36:41.432Z,100584.46
2019-05-01T12:37:31.473Z,100590.13
2019-05-01T12:38:07.997Z,100585.81
2019-05-01T12:38:44.260Z,100588.85
2019-05-01T12:39:21.712Z,100583.66
2019-05-01T12:39:58.460Z,100589.89
2019-05-01T12:40:35.514Z,100590.13
2019-05-01T12:41:31.116Z,100591.25
2019-05-01T12:42:08.276Z,100586.30
2019-05-01T12:42:45.232Z,100587.66
2019-05-01T12:43:21.865Z,100589.84
2019-05-01T12:43:59.922Z,100590.37
2019-05-01T12:44:36.355Z,100596.06
2019-05-01T12:45:13.071Z,100597.16
2019-05-01T12:45:51.094Z,100595.56
2019-05-01T12:47:06.014Z,100596.67
2019-05-01T12:48:13.499Z,100600.19
2019-05-01T12:48:49.825Z,100602.43
2019-05-01T12:49:26.139Z,100602.75
2019-05-01T12:50:03.136Z,100603.55
2019-05-01T12:50:40.127Z,100606.26
2019-05-01T12:51:17.259Z,100606.02
2019-05-01T12:52:09.862Z,100610.66
2019-05-01T12:53:06.061Z,100612.81
2019-05-01T12:54:04.938Z,100613.37
2019-05-01T12:55:05.247Z,100610.17
2019-05-01T12:56:17.500Z,100611.53
2019-05-01T12:56:57.746Z,100613.77
2019-05-01T12:57:34.175Z,100617.36
2019-05-01T12:58:11.372Z,100624.95
2019-05-01T12:58:50.282Z,100622.79
2019-05-01T12:59:26.748Z,100624.95
2019-05-01T13:00:08.765Z,100634.53
2019-05-01T13:00:44.652Z,100628.62
2019-05-01T13:01:21.880Z,100626.38
2019-05-01T13:01:59.165Z,100625.58
2019-05-01T13:02:35.267Z,100630.22
2019-05-01T13:03:12.324Z,100627.73
2019-05-01T13:03:49.216Z,100629.09
2019-05-01T13:04:26.136Z,100633.41
2019-05-01T13:05:02.741Z,100633.65
2019-05-01T13:05:39.223Z,100630.13
2019-05-01T13:06:15.550Z,100632.29
2019-05-01T13:06:53.576Z,100636.61
2019-05-01T13:07:30.169Z,100632.77
2019-05-01T13:08:06.437Z,100633.81
2019-05-01T13:08:43.114Z,100641.39
2019-05-01T13:09:20.326Z,100636.77
2019-05-01T13:09:56.536Z,100639.48
2019-05-01T13:10:33.507Z,100639.41
2019-05-01T13:11:10.258Z,100642.11
2019-05-01T13:11:46.480Z,100638.05
2019-05-01T13:12:23.422Z,100647.06
2019-05-01T13:13:00.391Z,100648.66
2019-05-01T13:13:36.798Z,100647.63
2019-05-01T13:14:13.538Z,100647.95
2019-05-01T13:14:50.525Z,100647.46
2019-05-01T13:15:26.691Z,100642.35
2019-05-01T13:16:03.578Z,100644.27
2019-05-01T13:16:40.474Z,100642.67
2019-05-01T13:17:17.079Z,100641.07
2019-05-01T13:17:53.801Z,100635.16
2019-05-01T13:18:30.810Z,100639.23
2019-05-01T13:19:07.113Z,100641.70
2019-05-01T13:19:43.758Z,100639.88
2019-05-01T13:20:20.087Z,100636.91
2019-05-01T13:20:56.348Z,100638.32
2019-05-01T13:21:33.326Z,100634.53
2019-05-01T13:22:10.321Z,100635.37
2019-05-01T13:22:47.368Z,100636.20
2019-05-01T13:23:23.963Z,100632.94
2019-05-01T13:24:01.066Z,100637.01
2019-05-01T13:24:50.681Z,100629.74
2019-05-01T13:25:27.702Z,100631.66
2019-05-01T13:26:29.409Z,100625.27
2019-05-01T13:27:20.104Z,100629.66
2019-05-01T13:28:15.302Z,100628.94
2019-05-01T13:29:02.453Z,100629.81
2019-05-01T13:29:46.749Z,100630.44
2019-05-01T13:30:41.849Z,100639.70
2019-05-01T13:31:31.018Z,100635.11
2019-05-01T13:32:18.516Z,100640.30
2019-05-01T13:32:56.115Z,100637.34
2019-05-01T13:33:35.927Z,100638.22
2019-05-01T13:34:12.874Z,100636.86
2019-05-01T13:34:49.044Z,100633.91
2019-05-01T13:35:25.382Z,100641.32
2019-05-01T13:36:02.646Z,100640.77
2019-05-01T13:36:42.174Z,100646.19
2019-05-01T13:37:19.184Z,100646.50
2019-05-01T13:37:57.015Z,100649.53
2019-05-01T13:38:33.803Z,100655.76
2019-05-01T13:39:12.520Z,100652.80
2019-05-01T13:39:53.545Z,100658.23
2019-05-01T13:40:29.870Z,100660.70
2019-05-01T13:41:06.101Z,100660.45
2019-05-01T13:41:43.024Z,100660.70
2019-05-01T13:42:19.146Z,100659.90
2019-05-01T13:42:57.099Z,100663.41
2019-05-01T13:43:33.618Z,100666.12
2019-05-01T13:44:10.115Z,100669.64
2019-05-01T13:44:46.569Z,100662.61
2019-05-01T13:45:23.400Z,100663.41
2019-05-01T13:45:59.642Z,100662.92
2019-05-01T13:46:36.107Z,100662.92
2019-05-01T13:47:12.642Z,100663.73
2019-05-01T13:47:48.742Z,100667.00
2019-05-01T13:48:24.946Z,100663.73
2019-05-01T13:49:01.713Z,100664.84
2019-05-01T13:49:38.065Z,100662.92
2019-05-01T13:50:15.971Z,100667.00
2019-05-01T13:50:53.110Z,100666.27
2019-05-01T13:51:30.087Z,100664.43
2019-05-01T13:52:06.722Z,100665.03
2019-05-01T13:52:42.948Z,100666.38
2019-05-01T13:53:19.282Z,100663.50
2019-05-01T13:53:56.158Z,100664.61
2019-05-01T13:54:33.122Z,100663.56
2019-05-01T13:55:12.539Z,100661.09
2019-05-01T13:55:49.006Z,100665.72
2019-05-01T13:56:25.333Z,100667.39
2019-05-01T13:57:03.408Z,100664.68
2019-05-01T13:57:39.702Z,100663.08
2019-05-01T13:58:18.743Z,100666.35
2019-05-01T13:58:55.017Z,100667.39
2019-05-01T13:59:34.934Z,100664.44
2019-05-01T14:00:12.335Z,100667.47
2019-05-01T14:00:48.511Z,100662.32
2019-05-01T14:01:26.408Z,100665.91
2019-05-01T14:02:02.668Z,100664.55
2019-05-01T14:02:42.286Z,100664.86
2019-05-01T14:03:18.679Z,100663.27
2019-05-01T14:03:55.475Z,100663.27
2019-05-01T14:04:32.736Z,100665.97
2019-05-01T14:05:09.032Z,100662.15
2019-05-01T14:05:46.041Z,100665.42
2019-05-01T14:06:23.418Z,100668.38
2019-05-01T14:06:59.690Z,100667.26
2019-05-01T14:07:36.790Z,100671.33
2019-05-01T14:08:13.115Z,100668.86
2019-05-01T14:08:49.456Z,100669.73
2019-05-01T14:09:29.513Z,100671.57
2019-05-01T14:10:06.792Z,100671.33
2019-05-01T14:10:43.951Z,100666.46
2019-05-01T14:11:20.794Z,100665.91
2019-05-01T14:12:00.745Z,100666.15
2019-05-01T14:12:37.587Z,100669.48
2019-05-01T14:13:14.658Z,100669.24
2019-05-01T14:13:51.965Z,100671.71
2019-05-01T14:14:28.782Z,100671.47
2019-05-01T14:15:05.519Z,100671.22
2019-05-01T14:15:41.662Z,100680.47
2019-05-01T14:16:17.824Z,100676.16
2019-05-01T14:16:54.677Z,100674.00
2019-05-01T14:17:31.014Z,100678.35
2019-05-01T14:18:07.840Z,100675.64